sensor_id;sensor_type;location;lat;lon;timestamp;P1;durP1;ratioP1;P2;durP2;ratioP2
49378;SDS011;35254;47.990;-1.608;2022-12-07T00:01:08;4.32;;;3.47;;
49378;SDS011;35254;47.990;-1.608;2022-12-07T00:03:36;4.85;;;3.33;;
49378;SDS011;35254;47.990;-1.608;2022-12-07T00:06:03;6.13;;;3.63;;
49378;SDS011;35254;47.990;-1.608;2022-12-07T00:08:30;4.45;;;3.90;;
49378;SDS011;35254;47.990;-1.608;2022-12-07T00:11:00;5.60;;;3.00;;
49378;SDS011;35254;47.990;-1.608;2022-12-07T00:13:37;8.13;;;3.42;;
49378;SDS011;35254;47.990;-1.608;2022-12-07T00:16:14;6.80;;;3.80;;
49378;SDS011;35254;47.990;-1.608;2022-12-07T00:18:41;4.93;;;3.72;;
49378;SDS011;35254;47.990;-1.608;2022-12-07T00:21:10;6.28;;;4.00;;
49378;SDS011;35254;47.990;-1.608;2022-12-07T00:23:36;4.80;;;4.23;;
49378;SDS011;35254;47.990;-1.608;2022-12-07T00:28:32;6.43;;;3.90;;
49378;SDS011;35254;47.990;-1.608;2022-12-07T00:31:05;6.57;;;4.03;;
49378;SDS011;35254;47.990;-1.608;2022-12-07T00:33:36;3.53;;;3.17;;
49378;SDS011;35254;47.990;-1.608;2022-12-07T00:36:04;3.63;;;2.83;;
49378;SDS011;35254;47.990;-1.608;2022-12-07T00:38:33;5.03;;;4.03;;
49378;SDS011;35254;47.990;-1.608;2022-12-07T00:41:01;3.58;;;3.08;;
49378;SDS011;35254;47.990;-1.608;2022-12-07T00:43:29;6.22;;;3.90;;
49378;SDS011;35254;47.990;-1.608;2022-12-07T00:45:55;5.15;;;3.63;;
49378;SDS011;35254;47.990;-1.608;2022-12-07T00:48:21;5.07;;;3.67;;
49378;SDS011;35254;47.990;-1.608;2022-12-07T00:50:48;3.58;;;3.15;;
49378;SDS011;35254;47.990;-1.608;2022-12-07T00:53:14;5.75;;;3.40;;
49378;SDS011;35254;47.990;-1.608;2022-12-07T00:55:40;6.18;;;4.35;;
49378;SDS011;35254;47.990;-1.608;2022-12-07T00:58:06;7.45;;;3.63;;
49378;SDS011;35254;47.990;-1.608;2022-12-07T01:00:32;5.15;;;3.38;;
49378;SDS011;35254;47.990;-1.608;2022-12-07T01:02:58;5.63;;;3.42;;
49378;SDS011;35254;47.990;-1.608;2022-12-07T01:05:24;5.95;;;4.05;;
49378;SDS011;35254;47.990;-1.608;2022-12-07T01:07:50;3.60;;;3.20;;
49378;SDS011;35254;47.990;-1.608;2022-12-07T01:10:15;3.38;;;2.83;;
49378;SDS011;35254;47.990;-1.608;2022-12-07T01:12:41;4.00;;;3.47;;
49378;SDS011;35254;47.990;-1.608;2022-12-07T01:15:07;4.72;;;3.65;;
49378;SDS011;35254;47.990;-1.608;2022-12-07T01:17:33;3.85;;;3.42;;
49378;SDS011;35254;47.990;-1.608;2022-12-07T01:19:59;5.25;;;3.47;;
49378;SDS011;35254;47.990;-1.608;2022-12-07T01:22:25;3.47;;;2.95;;
49378;SDS011;35254;47.990;-1.608;2022-12-07T01:24:51;4.28;;;3.33;;
49378;SDS011;35254;47.990;-1.608;2022-12-07T01:27:17;4.10;;;3.25;;
49378;SDS011;35254;47.990;-1.608;2022-12-07T01:29:42;4.13;;;3.25;;
49378;SDS011;35254;47.990;-1.608;2022-12-07T01:32:08;4.55;;;3.58;;
49378;SDS011;35254;47.990;-1.608;2022-12-07T01:34:33;4.25;;;3.33;;
49378;SDS011;35254;47.990;-1.608;2022-12-07T01:36:59;7.40;;;3.63;;
49378;SDS011;35254;47.990;-1.608;2022-12-07T01:39:25;3.85;;;3.40;;
49378;SDS011;35254;47.990;-1.608;2022-12-07T01:41:52;3.88;;;3.13;;
49378;SDS011;35254;47.990;-1.608;2022-12-07T01:46:55;3.90;;;2.95;;
49378;SDS011;35254;47.990;-1.608;2022-12-07T01:54:54;5.20;;;3.53;;
49378;SDS011;35254;47.990;-1.608;2022-12-07T01:57:34;4.82;;;3.97;;
49378;SDS011;35254;47.990;-1.608;2022-12-07T02:00:03;4.00;;;3.20;;
49378;SDS011;35254;47.990;-1.608;2022-12-07T02:02:35;4.07;;;3.67;;
49378;SDS011;35254;47.990;-1.608;2022-12-07T02:05:05;4.25;;;3.80;;
49378;SDS011;35254;47.990;-1.608;2022-12-07T02:07:31;4.68;;;3.80;;
49378;SDS011;35254;47.990;-1.608;2022-12-07T02:10:16;6.72;;;3.53;;
49378;SDS011;35254;47.990;-1.608;2022-12-07T02:12:51;4.28;;;3.22;;
49378;SDS011;35254;47.990;-1.608;2022-12-07T02:15:21;4.38;;;3.97;;
49378;SDS011;35254;47.990;-1.608;2022-12-07T02:17:55;4.45;;;3.72;;
49378;SDS011;35254;47.990;-1.608;2022-12-07T02:23:41;5.03;;;3.70;;
49378;SDS011;35254;47.990;-1.608;2022-12-07T02:29:13;3.90;;;3.50;;
49378;SDS011;35254;47.990;-1.608;2022-12-07T02:31:49;5.35;;;4.00;;
49378;SDS011;35254;47.990;-1.608;2022-12-07T02:34:34;4.90;;;4.10;;
49378;SDS011;35254;47.990;-1.608;2022-12-07T02:37:10;4.20;;;3.80;;
49378;SDS011;35254;47.990;-1.608;2022-12-07T02:40:04;9.15;;;3.65;;
49378;SDS011;35254;47.990;-1.608;2022-12-07T02:42:40;5.25;;;3.47;;
49378;SDS011;35254;47.990;-1.608;2022-12-07T02:45:09;4.75;;;3.70;;
49378;SDS011;35254;47.990;-1.608;2022-12-07T02:47:38;4.13;;;3.25;;
49378;SDS011;35254;47.990;-1.608;2022-12-07T02:50:05;6.78;;;4.85;;
49378;SDS011;35254;47.990;-1.608;2022-12-07T02:52:32;4.28;;;3.88;;
49378;SDS011;35254;47.990;-1.608;2022-12-07T02:54:57;4.05;;;3.33;;
49378;SDS011;35254;47.990;-1.608;2022-12-07T02:57:30;5.05;;;4.60;;
49378;SDS011;35254;47.990;-1.608;2022-12-07T03:00:15;3.80;;;3.45;;
49378;SDS011;35254;47.990;-1.608;2022-12-07T03:03:00;4.55;;;3.88;;
49378;SDS011;35254;47.990;-1.608;2022-12-07T03:11:23;4.47;;;3.97;;
49378;SDS011;35254;47.990;-1.608;2022-12-07T03:14:08;3.83;;;3.53;;
49378;SDS011;35254;47.990;-1.608;2022-12-07T03:16:43;4.72;;;3.55;;
49378;SDS011;35254;47.990;-1.608;2022-12-07T03:19:17;6.78;;;3.55;;
49378;SDS011;35254;47.990;-1.608;2022-12-07T03:24:19;4.82;;;3.60;;
49378;SDS011;35254;47.990;-1.608;2022-12-07T03:26:55;4.88;;;4.30;;
49378;SDS011;35254;47.990;-1.608;2022-12-07T03:29:28;5.05;;;4.03;;
49378;SDS011;35254;47.990;-1.608;2022-12-07T03:31:59;6.38;;;3.63;;
49378;SDS011;35254;47.990;-1.608;2022-12-07T03:35:16;4.65;;;4.25;;
49378;SDS011;35254;47.990;-1.608;2022-12-07T03:37:23;5.80;;;3.88;;
49378;SDS011;35254;47.990;-1.608;2022-12-07T03:40:11;10.85;;;4.40;;
49378;SDS011;35254;47.990;-1.608;2022-12-07T03:42:47;5.18;;;4.15;;
49378;SDS011;35254;47.990;-1.608;2022-12-07T03:45:13;7.28;;;4.25;;
49378;SDS011;35254;47.990;-1.608;2022-12-07T03:53:15;4.82;;;4.30;;
49378;SDS011;35254;47.990;-1.608;2022-12-07T03:55:54;9.85;;;4.63;;
49378;SDS011;35254;47.990;-1.608;2022-12-07T03:58:22;5.43;;;4.57;;
49378;SDS011;35254;47.990;-1.608;2022-12-07T04:00:49;5.93;;;4.68;;
49378;SDS011;35254;47.990;-1.608;2022-12-07T04:03:15;6.30;;;4.90;;
49378;SDS011;35254;47.990;-1.608;2022-12-07T04:05:42;4.72;;;4.28;;
49378;SDS011;35254;47.990;-1.608;2022-12-07T04:08:08;6.63;;;4.82;;
49378;SDS011;35254;47.990;-1.608;2022-12-07T04:10:34;8.38;;;4.78;;
49378;SDS011;35254;47.990;-1.608;2022-12-07T04:13:00;7.75;;;4.85;;
49378;SDS011;35254;47.990;-1.608;2022-12-07T04:15:26;5.65;;;4.43;;
49378;SDS011;35254;47.990;-1.608;2022-12-07T04:17:51;5.10;;;4.60;;
49378;SDS011;35254;47.990;-1.608;2022-12-07T04:20:17;5.60;;;4.47;;
49378;SDS011;35254;47.990;-1.608;2022-12-07T04:22:43;9.25;;;5.40;;
49378;SDS011;35254;47.990;-1.608;2022-12-07T04:25:09;7.28;;;5.15;;
49378;SDS011;35254;47.990;-1.608;2022-12-07T04:27:34;5.45;;;4.57;;
49378;SDS011;35254;47.990;-1.608;2022-12-07T04:30:00;5.47;;;4.90;;
49378;SDS011;35254;47.990;-1.608;2022-12-07T04:32:26;6.30;;;4.63;;
49378;SDS011;35254;47.990;-1.608;2022-12-07T04:34:52;5.93;;;4.35;;
49378;SDS011;35254;47.990;-1.608;2022-12-07T04:37:17;6.25;;;5.00;;
49378;SDS011;35254;47.990;-1.608;2022-12-07T04:39:43;6.78;;;4.78;;
49378;SDS011;35254;47.990;-1.608;2022-12-07T04:42:09;5.68;;;4.15;;
49378;SDS011;35254;47.990;-1.608;2022-12-07T04:44:37;6.80;;;4.47;;
49378;SDS011;35254;47.990;-1.608;2022-12-07T04:47:03;6.03;;;4.32;;
49378;SDS011;35254;47.990;-1.608;2022-12-07T04:49:29;5.30;;;4.25;;
49378;SDS011;35254;47.990;-1.608;2022-12-07T04:51:55;10.23;;;5.05;;
49378;SDS011;35254;47.990;-1.608;2022-12-07T04:54:20;5.47;;;4.47;;
49378;SDS011;35254;47.990;-1.608;2022-12-07T04:56:46;6.75;;;4.20;;
49378;SDS011;35254;47.990;-1.608;2022-12-07T04:59:12;6.55;;;4.47;;
49378;SDS011;35254;47.990;-1.608;2022-12-07T05:01:39;5.10;;;4.10;;
49378;SDS011;35254;47.990;-1.608;2022-12-07T05:04:05;6.57;;;4.78;;
49378;SDS011;35254;47.990;-1.608;2022-12-07T05:06:31;6.18;;;4.43;;
49378;SDS011;35254;47.990;-1.608;2022-12-07T05:08:57;4.75;;;4.22;;
49378;SDS011;35254;47.990;-1.608;2022-12-07T05:11:23;6.25;;;4.65;;
49378;SDS011;35254;47.990;-1.608;2022-12-07T05:14:06;6.15;;;4.05;;
49378;SDS011;35254;47.990;-1.608;2022-12-07T05:16:35;6.18;;;3.90;;
49378;SDS011;35254;47.990;-1.608;2022-12-07T05:19:01;7.85;;;4.50;;
49378;SDS011;35254;47.990;-1.608;2022-12-07T05:21:27;6.57;;;4.15;;
49378;SDS011;35254;47.990;-1.608;2022-12-07T05:23:53;4.40;;;3.28;;
49378;SDS011;35254;47.990;-1.608;2022-12-07T05:26:18;5.90;;;4.40;;
49378;SDS011;35254;47.990;-1.608;2022-12-07T05:28:44;3.92;;;3.55;;
49378;SDS011;35254;47.990;-1.608;2022-12-07T05:31:10;5.90;;;4.72;;
49378;SDS011;35254;47.990;-1.608;2022-12-07T05:33:35;5.75;;;3.72;;
49378;SDS011;35254;47.990;-1.608;2022-12-07T05:36:01;7.68;;;4.07;;
49378;SDS011;35254;47.990;-1.608;2022-12-07T05:38:30;6.03;;;4.00;;
49378;SDS011;35254;47.990;-1.608;2022-12-07T05:40:59;4.60;;;3.83;;
49378;SDS011;35254;47.990;-1.608;2022-12-07T05:43:29;4.97;;;3.67;;
49378;SDS011;35254;47.990;-1.608;2022-12-07T05:45:55;4.90;;;3.95;;
49378;SDS011;35254;47.990;-1.608;2022-12-07T05:48:21;3.58;;;2.97;;
49378;SDS011;35254;47.990;-1.608;2022-12-07T05:50:47;4.03;;;3.63;;
49378;SDS011;35254;47.990;-1.608;2022-12-07T05:53:13;6.43;;;3.72;;
49378;SDS011;35254;47.990;-1.608;2022-12-07T05:55:39;4.30;;;3.53;;
49378;SDS011;35254;47.990;-1.608;2022-12-07T05:58:05;5.70;;;3.83;;
49378;SDS011;35254;47.990;-1.608;2022-12-07T06:00:49;7.75;;;4.18;;
49378;SDS011;35254;47.990;-1.608;2022-12-07T06:03:15;4.30;;;3.58;;
49378;SDS011;35254;47.990;-1.608;2022-12-07T06:05:40;6.45;;;4.13;;
49378;SDS011;35254;47.990;-1.608;2022-12-07T06:08:06;3.90;;;3.45;;
49378;SDS011;35254;47.990;-1.608;2022-12-07T06:10:32;4.75;;;4.20;;
49378;SDS011;35254;47.990;-1.608;2022-12-07T06:12:58;5.45;;;4.43;;
49378;SDS011;35254;47.990;-1.608;2022-12-07T06:15:24;5.80;;;4.18;;
49378;SDS011;35254;47.990;-1.608;2022-12-07T06:17:49;6.15;;;4.35;;
49378;SDS011;35254;47.990;-1.608;2022-12-07T06:20:15;5.20;;;4.20;;
49378;SDS011;35254;47.990;-1.608;2022-12-07T06:22:41;4.57;;;3.83;;
49378;SDS011;35254;47.990;-1.608;2022-12-07T06:25:06;5.53;;;4.40;;
49378;SDS011;35254;47.990;-1.608;2022-12-07T06:27:32;7.57;;;4.43;;
49378;SDS011;35254;47.990;-1.608;2022-12-07T06:29:58;6.28;;;4.55;;
49378;SDS011;35254;47.990;-1.608;2022-12-07T06:32:24;4.60;;;4.20;;
49378;SDS011;35254;47.990;-1.608;2022-12-07T06:34:50;7.25;;;4.20;;
49378;SDS011;35254;47.990;-1.608;2022-12-07T06:37:16;6.43;;;5.05;;
49378;SDS011;35254;47.990;-1.608;2022-12-07T06:39:41;7.28;;;4.55;;
49378;SDS011;35254;47.990;-1.608;2022-12-07T06:42:07;7.00;;;4.05;;
49378;SDS011;35254;47.990;-1.608;2022-12-07T06:44:33;8.27;;;4.43;;
49378;SDS011;35254;47.990;-1.608;2022-12-07T06:46:58;5.25;;;4.38;;
49378;SDS011;35254;47.990;-1.608;2022-12-07T06:49:24;5.85;;;4.05;;
49378;SDS011;35254;47.990;-1.608;2022-12-07T06:51:50;6.35;;;4.38;;
49378;SDS011;35254;47.990;-1.608;2022-12-07T06:54:16;5.20;;;4.43;;
49378;SDS011;35254;47.990;-1.608;2022-12-07T06:56:42;6.05;;;4.22;;
49378;SDS011;35254;47.990;-1.608;2022-12-07T06:59:07;6.38;;;4.70;;
49378;SDS011;35254;47.990;-1.608;2022-12-07T07:01:33;4.88;;;3.78;;
49378;SDS011;35254;47.990;-1.608;2022-12-07T07:04:00;5.53;;;4.00;;
49378;SDS011;35254;47.990;-1.608;2022-12-07T07:06:26;6.47;;;3.97;;
49378;SDS011;35254;47.990;-1.608;2022-12-07T07:08:51;3.80;;;3.35;;
49378;SDS011;35254;47.990;-1.608;2022-12-07T07:11:17;4.78;;;3.85;;
49378;SDS011;35254;47.990;-1.608;2022-12-07T07:13:43;5.13;;;3.47;;
49378;SDS011;35254;47.990;-1.608;2022-12-07T07:16:09;4.82;;;3.53;;
49378;SDS011;35254;47.990;-1.608;2022-12-07T07:18:35;5.07;;;3.80;;
49378;SDS011;35254;47.990;-1.608;2022-12-07T07:21:01;4.88;;;3.65;;
49378;SDS011;35254;47.990;-1.608;2022-12-07T07:23:27;6.93;;;3.97;;
49378;SDS011;35254;47.990;-1.608;2022-12-07T07:25:52;6.00;;;3.80;;
49378;SDS011;35254;47.990;-1.608;2022-12-07T07:28:18;5.13;;;3.50;;
49378;SDS011;35254;47.990;-1.608;2022-12-07T07:30:44;5.53;;;4.28;;
49378;SDS011;35254;47.990;-1.608;2022-12-07T07:33:10;4.20;;;3.80;;
49378;SDS011;35254;47.990;-1.608;2022-12-07T07:35:36;9.13;;;4.38;;
49378;SDS011;35254;47.990;-1.608;2022-12-07T07:38:02;4.78;;;4.35;;
49378;SDS011;35254;47.990;-1.608;2022-12-07T07:40:28;5.07;;;4.15;;
49378;SDS011;35254;47.990;-1.608;2022-12-07T07:42:55;5.75;;;4.40;;
49378;SDS011;35254;47.990;-1.608;2022-12-07T07:45:21;5.80;;;4.43;;
49378;SDS011;35254;47.990;-1.608;2022-12-07T07:47:49;4.13;;;3.72;;
49378;SDS011;35254;47.990;-1.608;2022-12-07T07:50:15;5.63;;;4.75;;
49378;SDS011;35254;47.990;-1.608;2022-12-07T07:52:41;7.28;;;4.13;;
49378;SDS011;35254;47.990;-1.608;2022-12-07T07:55:08;5.68;;;3.88;;
49378;SDS011;35254;47.990;-1.608;2022-12-07T07:57:34;5.50;;;4.30;;
49378;SDS011;35254;47.990;-1.608;2022-12-07T08:00:01;4.75;;;3.78;;
49378;SDS011;35254;47.990;-1.608;2022-12-07T08:02:31;5.72;;;3.85;;
49378;SDS011;35254;47.990;-1.608;2022-12-07T08:04:57;4.78;;;4.07;;
49378;SDS011;35254;47.990;-1.608;2022-12-07T08:07:22;4.00;;;3.60;;
49378;SDS011;35254;47.990;-1.608;2022-12-07T08:09:48;4.07;;;3.40;;
49378;SDS011;35254;47.990;-1.608;2022-12-07T08:12:13;4.80;;;3.90;;
49378;SDS011;35254;47.990;-1.608;2022-12-07T08:14:39;3.80;;;3.38;;
49378;SDS011;35254;47.990;-1.608;2022-12-07T08:17:05;8.18;;;3.85;;
49378;SDS011;35254;47.990;-1.608;2022-12-07T08:19:30;4.13;;;3.35;;
49378;SDS011;35254;47.990;-1.608;2022-12-07T08:21:56;4.63;;;3.90;;
49378;SDS011;35254;47.990;-1.608;2022-12-07T08:24:22;4.50;;;3.70;;
49378;SDS011;35254;47.990;-1.608;2022-12-07T08:26:48;3.95;;;3.22;;
49378;SDS011;35254;47.990;-1.608;2022-12-07T08:29:14;4.53;;;3.03;;
49378;SDS011;35254;47.990;-1.608;2022-12-07T08:31:40;4.47;;;3.75;;
49378;SDS011;35254;47.990;-1.608;2022-12-07T08:34:06;3.75;;;3.10;;
49378;SDS011;35254;47.990;-1.608;2022-12-07T08:36:32;4.43;;;3.78;;
49378;SDS011;35254;47.990;-1.608;2022-12-07T08:38:57;5.15;;;3.65;;
49378;SDS011;35254;47.990;-1.608;2022-12-07T08:41:23;5.47;;;4.22;;
49378;SDS011;35254;47.990;-1.608;2022-12-07T08:43:48;7.35;;;3.45;;
49378;SDS011;35254;47.990;-1.608;2022-12-07T08:46:20;4.88;;;3.53;;
49378;SDS011;35254;47.990;-1.608;2022-12-07T08:48:52;4.10;;;3.33;;
49378;SDS011;35254;47.990;-1.608;2022-12-07T08:53:47;5.20;;;3.45;;
49378;SDS011;35254;47.990;-1.608;2022-12-07T08:56:14;8.32;;;3.15;;
49378;SDS011;35254;47.990;-1.608;2022-12-07T08:58:40;6.30;;;3.80;;
49378;SDS011;35254;47.990;-1.608;2022-12-07T09:01:06;5.22;;;3.40;;
49378;SDS011;35254;47.990;-1.608;2022-12-07T09:03:32;6.20;;;3.15;;
49378;SDS011;35254;47.990;-1.608;2022-12-07T09:05:58;5.63;;;4.60;;
49378;SDS011;35254;47.990;-1.608;2022-12-07T09:08:26;7.30;;;4.70;;
49378;SDS011;35254;47.990;-1.608;2022-12-07T09:10:59;11.00;;;7.38;;
49378;SDS011;35254;47.990;-1.608;2022-12-07T09:13:25;8.07;;;6.40;;
49378;SDS011;35254;47.990;-1.608;2022-12-07T09:15:51;11.35;;;6.43;;
49378;SDS011;35254;47.990;-1.608;2022-12-07T09:18:16;10.50;;;7.57;;
49378;SDS011;35254;47.990;-1.608;2022-12-07T09:20:42;8.15;;;5.90;;
49378;SDS011;35254;47.990;-1.608;2022-12-07T09:23:08;7.43;;;6.13;;
49378;SDS011;35254;47.990;-1.608;2022-12-07T09:25:34;6.28;;;4.93;;
49378;SDS011;35254;47.990;-1.608;2022-12-07T09:28:00;6.75;;;4.82;;
49378;SDS011;35254;47.990;-1.608;2022-12-07T09:30:26;8.18;;;5.60;;
49378;SDS011;35254;47.990;-1.608;2022-12-07T09:32:53;7.38;;;4.80;;
49378;SDS011;35254;47.990;-1.608;2022-12-07T09:35:20;6.90;;;4.45;;
49378;SDS011;35254;47.990;-1.608;2022-12-07T09:37:46;5.10;;;4.47;;
49378;SDS011;35254;47.990;-1.608;2022-12-07T09:40:12;7.30;;;4.50;;
49378;SDS011;35254;47.990;-1.608;2022-12-07T09:42:41;5.13;;;4.28;;
49378;SDS011;35254;47.990;-1.608;2022-12-07T09:45:11;6.40;;;5.18;;
49378;SDS011;35254;47.990;-1.608;2022-12-07T09:47:41;4.97;;;3.90;;
49378;SDS011;35254;47.990;-1.608;2022-12-07T09:50:12;4.10;;;3.70;;
49378;SDS011;35254;47.990;-1.608;2022-12-07T09:52:45;4.05;;;3.65;;
49378;SDS011;35254;47.990;-1.608;2022-12-07T09:55:14;4.32;;;3.92;;
49378;SDS011;35254;47.990;-1.608;2022-12-07T09:57:44;4.80;;;3.75;;
49378;SDS011;35254;47.990;-1.608;2022-12-07T10:00:14;4.90;;;3.83;;
49378;SDS011;35254;47.990;-1.608;2022-12-07T10:02:43;33.60;;;6.72;;
49378;SDS011;35254;47.990;-1.608;2022-12-07T10:05:13;5.03;;;3.90;;
49378;SDS011;35254;47.990;-1.608;2022-12-07T10:07:41;4.07;;;3.33;;
49378;SDS011;35254;47.990;-1.608;2022-12-07T10:10:15;5.03;;;3.33;;
49378;SDS011;35254;47.990;-1.608;2022-12-07T10:13:06;3.95;;;3.65;;
49378;SDS011;35254;47.990;-1.608;2022-12-07T10:23:32;5.57;;;3.65;;
49378;SDS011;35254;47.990;-1.608;2022-12-07T10:25:59;3.85;;;3.40;;
49378;SDS011;35254;47.990;-1.608;2022-12-07T10:28:44;4.57;;;3.47;;
49378;SDS011;35254;47.990;-1.608;2022-12-07T10:31:17;5.93;;;3.97;;
49378;SDS011;35254;47.990;-1.608;2022-12-07T10:33:49;5.07;;;3.72;;
49378;SDS011;35254;47.990;-1.608;2022-12-07T10:36:27;4.57;;;3.42;;
49378;SDS011;35254;47.990;-1.608;2022-12-07T10:39:14;5.68;;;3.75;;
49378;SDS011;35254;47.990;-1.608;2022-12-07T10:41:52;3.95;;;3.42;;
49378;SDS011;35254;47.990;-1.608;2022-12-07T10:44:29;6.00;;;3.22;;
49378;SDS011;35254;47.990;-1.608;2022-12-07T10:55:02;6.63;;;4.13;;
49378;SDS011;35254;47.990;-1.608;2022-12-07T10:57:41;4.70;;;3.78;;
49378;SDS011;35254;47.990;-1.608;2022-12-07T11:00:25;9.05;;;4.00;;
49378;SDS011;35254;47.990;-1.608;2022-12-07T11:13:44;7.40;;;4.60;;
49378;SDS011;35254;47.990;-1.608;2022-12-07T11:16:27;8.70;;;4.30;;
49378;SDS011;35254;47.990;-1.608;2022-12-07T11:21:40;5.25;;;4.43;;
49378;SDS011;35254;47.990;-1.608;2022-12-07T11:24:28;4.70;;;3.92;;
49378;SDS011;35254;47.990;-1.608;2022-12-07T11:29:41;5.50;;;4.00;;
49378;SDS011;35254;47.990;-1.608;2022-12-07T11:32:19;4.43;;;3.75;;
49378;SDS011;35254;47.990;-1.608;2022-12-07T11:37:32;5.30;;;4.35;;
49378;SDS011;35254;47.990;-1.608;2022-12-07T11:40:14;4.82;;;3.88;;
49378;SDS011;35254;47.990;-1.608;2022-12-07T11:42:49;5.15;;;4.20;;
49378;SDS011;35254;47.990;-1.608;2022-12-07T11:45:24;9.85;;;3.95;;
49378;SDS011;35254;47.990;-1.608;2022-12-07T11:47:58;5.13;;;4.00;;
49378;SDS011;35254;47.990;-1.608;2022-12-07T11:53:00;5.82;;;3.88;;
49378;SDS011;35254;47.990;-1.608;2022-12-07T11:55:40;5.22;;;4.38;;
49378;SDS011;35254;47.990;-1.608;2022-12-07T12:00:51;6.75;;;3.50;;
49378;SDS011;35254;47.990;-1.608;2022-12-07T12:03:23;5.13;;;3.95;;
49378;SDS011;35254;47.990;-1.608;2022-12-07T12:05:56;5.80;;;4.20;;
49378;SDS011;35254;47.990;-1.608;2022-12-07T12:08:33;4.82;;;4.13;;
49378;SDS011;35254;47.990;-1.608;2022-12-07T12:11:15;5.65;;;4.20;;
49378;SDS011;35254;47.990;-1.608;2022-12-07T12:16:29;6.10;;;4.78;;
49378;SDS011;35254;47.990;-1.608;2022-12-07T12:19:15;6.60;;;4.13;;
49378;SDS011;35254;47.990;-1.608;2022-12-07T12:21:49;7.43;;;5.25;;
49378;SDS011;35254;47.990;-1.608;2022-12-07T12:24:25;14.38;;;4.50;;
49378;SDS011;35254;47.990;-1.608;2022-12-07T12:26:55;6.32;;;5.45;;
49378;SDS011;35254;47.990;-1.608;2022-12-07T12:29:34;7.95;;;6.20;;
49378;SDS011;35254;47.990;-1.608;2022-12-07T12:34:41;14.95;;;6.10;;
49378;SDS011;35254;47.990;-1.608;2022-12-07T12:42:50;12.23;;;6.07;;
49378;SDS011;35254;47.990;-1.608;2022-12-07T12:48:02;13.63;;;6.82;;
49378;SDS011;35254;47.990;-1.608;2022-12-07T12:50:30;70.95;;;45.33;;
49378;SDS011;35254;47.990;-1.608;2022-12-07T12:58:35;65.95;;;40.38;;
49378;SDS011;35254;47.990;-1.608;2022-12-07T13:01:45;57.10;;;36.42;;
49378;SDS011;35254;47.990;-1.608;2022-12-07T13:04:00;57.47;;;31.52;;
49378;SDS011;35254;47.990;-1.608;2022-12-07T13:08:53;39.78;;;25.45;;
49378;SDS011;35254;47.990;-1.608;2022-12-07T13:11:28;39.93;;;24.63;;
49378;SDS011;35254;47.990;-1.608;2022-12-07T13:17:00;28.90;;;20.52;;
49378;SDS011;35254;47.990;-1.608;2022-12-07T13:20:39;34.10;;;17.30;;
49378;SDS011;35254;47.990;-1.608;2022-12-07T13:22:40;26.48;;;12.52;;
49378;SDS011;35254;47.990;-1.608;2022-12-07T13:25:12;26.50;;;13.75;;
49378;SDS011;35254;47.990;-1.608;2022-12-07T13:27:47;17.83;;;11.90;;
49378;SDS011;35254;47.990;-1.608;2022-12-07T13:30:22;19.75;;;12.75;;
49378;SDS011;35254;47.990;-1.608;2022-12-07T13:32:51;17.38;;;11.88;;
49378;SDS011;35254;47.990;-1.608;2022-12-07T13:35:33;15.45;;;11.25;;
49378;SDS011;35254;47.990;-1.608;2022-12-07T13:43:30;16.80;;;12.05;;
49378;SDS011;35254;47.990;-1.608;2022-12-07T13:45:59;19.08;;;11.85;;
49378;SDS011;35254;47.990;-1.608;2022-12-07T13:51:00;14.38;;;10.68;;
49378;SDS011;35254;47.990;-1.608;2022-12-07T13:53:27;15.25;;;10.20;;
49378;SDS011;35254;47.990;-1.608;2022-12-07T13:55:55;13.80;;;10.60;;
49378;SDS011;35254;47.990;-1.608;2022-12-07T13:58:23;14.65;;;10.10;;
49378;SDS011;35254;47.990;-1.608;2022-12-07T14:00:49;18.45;;;11.15;;
49378;SDS011;35254;47.990;-1.608;2022-12-07T14:05:41;16.98;;;10.23;;
49378;SDS011;35254;47.990;-1.608;2022-12-07T14:16:05;17.63;;;11.75;;
49378;SDS011;35254;47.990;-1.608;2022-12-07T14:18:47;14.52;;;9.48;;
49378;SDS011;35254;47.990;-1.608;2022-12-07T14:23:39;18.10;;;9.00;;
49378;SDS011;35254;47.990;-1.608;2022-12-07T14:26:07;17.10;;;8.85;;
49378;SDS011;35254;47.990;-1.608;2022-12-07T14:28:36;13.50;;;9.63;;
49378;SDS011;35254;47.990;-1.608;2022-12-07T14:31:02;21.02;;;8.85;;
49378;SDS011;35254;47.990;-1.608;2022-12-07T14:33:32;14.07;;;8.30;;
49378;SDS011;35254;47.990;-1.608;2022-12-07T14:35:58;18.48;;;8.65;;
49378;SDS011;35254;47.990;-1.608;2022-12-07T14:38:23;15.55;;;7.60;;
49378;SDS011;35254;47.990;-1.608;2022-12-07T14:40:53;15.32;;;8.43;;
49378;SDS011;35254;47.990;-1.608;2022-12-07T14:43:19;13.80;;;8.60;;
49378;SDS011;35254;47.990;-1.608;2022-12-07T14:45:45;17.08;;;7.65;;
49378;SDS011;35254;47.990;-1.608;2022-12-07T14:48:12;19.38;;;8.55;;
49378;SDS011;35254;47.990;-1.608;2022-12-07T14:50:41;17.92;;;10.05;;
49378;SDS011;35254;47.990;-1.608;2022-12-07T14:53:13;11.73;;;7.65;;
49378;SDS011;35254;47.990;-1.608;2022-12-07T14:55:41;11.20;;;7.28;;
49378;SDS011;35254;47.990;-1.608;2022-12-07T14:58:11;9.75;;;7.25;;
49378;SDS011;35254;47.990;-1.608;2022-12-07T15:00:40;18.63;;;7.60;;
49378;SDS011;35254;47.990;-1.608;2022-12-07T15:03:06;9.40;;;6.97;;
49378;SDS011;35254;47.990;-1.608;2022-12-07T15:05:32;19.30;;;6.90;;
49378;SDS011;35254;47.990;-1.608;2022-12-07T15:07:58;14.43;;;7.25;;
49378;SDS011;35254;47.990;-1.608;2022-12-07T15:10:32;10.07;;;5.63;;
49378;SDS011;35254;47.990;-1.608;2022-12-07T15:12:59;8.50;;;6.78;;
49378;SDS011;35254;47.990;-1.608;2022-12-07T15:15:45;8.38;;;6.82;;
49378;SDS011;35254;47.990;-1.608;2022-12-07T15:18:14;20.05;;;7.78;;
49378;SDS011;35254;47.990;-1.608;2022-12-07T15:20:40;8.07;;;7.13;;
49378;SDS011;35254;47.990;-1.608;2022-12-07T15:23:06;11.30;;;6.82;;
49378;SDS011;35254;47.990;-1.608;2022-12-07T15:25:32;9.23;;;6.50;;
49378;SDS011;35254;47.990;-1.608;2022-12-07T15:28:04;10.24;;;6.50;;
49378;SDS011;35254;47.990;-1.608;2022-12-07T15:30:29;12.55;;;6.43;;
49378;SDS011;35254;47.990;-1.608;2022-12-07T15:32:55;11.38;;;6.60;;
49378;SDS011;35254;47.990;-1.608;2022-12-07T15:35:20;10.38;;;6.05;;
49378;SDS011;35254;47.990;-1.608;2022-12-07T15:37:46;6.93;;;5.78;;
49378;SDS011;35254;47.990;-1.608;2022-12-07T15:40:12;6.53;;;5.45;;
49378;SDS011;35254;47.990;-1.608;2022-12-07T15:42:38;7.55;;;5.93;;
49378;SDS011;35254;47.990;-1.608;2022-12-07T15:45:06;9.63;;;6.88;;
49378;SDS011;35254;47.990;-1.608;2022-12-07T15:47:37;7.70;;;5.70;;
49378;SDS011;35254;47.990;-1.608;2022-12-07T15:50:05;7.30;;;5.38;;
49378;SDS011;35254;47.990;-1.608;2022-12-07T15:52:33;8.20;;;5.80;;
49378;SDS011;35254;47.990;-1.608;2022-12-07T15:54:58;7.30;;;5.95;;
49378;SDS011;35254;47.990;-1.608;2022-12-07T15:57:30;6.78;;;5.03;;
49378;SDS011;35254;47.990;-1.608;2022-12-07T15:59:57;9.95;;;5.30;;
49378;SDS011;35254;47.990;-1.608;2022-12-07T16:02:23;6.80;;;5.88;;
49378;SDS011;35254;47.990;-1.608;2022-12-07T16:04:48;7.82;;;5.68;;
49378;SDS011;35254;47.990;-1.608;2022-12-07T16:07:15;5.88;;;4.18;;
49378;SDS011;35254;47.990;-1.608;2022-12-07T16:09:42;11.43;;;5.20;;
49378;SDS011;35254;47.990;-1.608;2022-12-07T16:12:08;7.72;;;4.75;;
49378;SDS011;35254;47.990;-1.608;2022-12-07T16:14:35;8.95;;;5.50;;
49378;SDS011;35254;47.990;-1.608;2022-12-07T16:17:01;6.80;;;4.57;;
49378;SDS011;35254;47.990;-1.608;2022-12-07T16:19:27;8.15;;;4.60;;
49378;SDS011;35254;47.990;-1.608;2022-12-07T16:21:53;6.75;;;4.07;;
49378;SDS011;35254;47.990;-1.608;2022-12-07T16:24:18;11.77;;;4.72;;
49378;SDS011;35254;47.990;-1.608;2022-12-07T16:26:44;10.40;;;5.63;;
49378;SDS011;35254;47.990;-1.608;2022-12-07T16:29:11;11.57;;;4.90;;
49378;SDS011;35254;47.990;-1.608;2022-12-07T16:31:37;11.00;;;5.03;;
49378;SDS011;35254;47.990;-1.608;2022-12-07T16:34:03;9.65;;;5.22;;
49378;SDS011;35254;47.990;-1.608;2022-12-07T16:36:29;8.45;;;5.07;;
49378;SDS011;35254;47.990;-1.608;2022-12-07T16:38:57;8.95;;;5.82;;
49378;SDS011;35254;47.990;-1.608;2022-12-07T16:41:23;10.07;;;5.50;;